Tuesday, January 16, 2018, 12:09 PM EST
Back to Local

KLEW, Auburn-lewiston

Location: Auburn, ME, United States Lat: 44.05
Local Time: 12:09 PM EST (17:09 GMT) Lon: -70.283
Time Zone: US/Eastern Elev: 288 ft

Show me the last for .
Show Decoded

2018-01-16 11:43 METAR KLEW 161643Z AUTO 00000KT 10SM BKN028 M03/M11 A3048 RMK AO2 FZRANO =
2018-01-16 10:56 METAR KLEW 161556Z AUTO 00000KT 10SM SCT080 M03/M09 A3051 RMK AO2 SLP348
                 T10331089 FZRANO =
2018-01-16 09:56 METAR KLEW 161456Z AUTO 33003KT 10SM CLR M06/M12 A3052 RMK AO2 SLP352 60000
                 T10561122 58000 FZRANO =
2018-01-16 08:56 METAR KLEW 161356Z AUTO 36003KT 10SM CLR M08/M13 A3052 RMK AO2 SLP354 T10831128
                 FZRANO =
2018-01-16 07:56 METAR KLEW 161256Z AUTO 00000KT 10SM BKN110 M10/M13 A3052 RMK AO2 SNE01 SLP354
                 P0000 T11001133 FZRANO =
2018-01-16 06:56 METAR KLEW 161156Z AUTO 01004KT 9SM -SN FEW028 M11/M14 A3052 RMK AO2 SLP352
                 P0000 60000 T11061139 11100 21106 53004 FZRANO =
2018-01-16 06:52 METAR KLEW 161152Z AUTO 03004KT 9SM -SN SCT028 M11/M14 A3051 RMK AO2 P0000
                 FZRANO =
2018-01-16 05:56 METAR KLEW 161056Z AUTO 01006KT 10SM -SN OVC028 M11/M13 A3051 RMK AO2 SLP348
                 P0000 T11061133 FZRANO =
2018-01-16 04:56 METAR KLEW 160956Z AUTO 02005KT 9SM -SN OVC028 M10/M13 A3051 RMK AO2 SLP347
                 P0000 T11001133 FZRANO =
2018-01-16 03:56 METAR KLEW 160856Z AUTO 01009KT 9SM -SN OVC028 M10/M13 A3050 RMK AO2 SLP347
                 P0000 60000 T11001133 58007 FZRANO =
2018-01-16 02:56 METAR KLEW 160756Z AUTO 01008KT 9SM -SN OVC028 M10/M13 A3051 RMK AO2 SLP350
                 P0000 T11001133 FZRANO =
2018-01-16 01:56 METAR KLEW 160656Z AUTO 01008KT 9SM -SN OVC028 M10/M13 A3052 RMK AO2 SLP354
                 P0000 T11001128 FZRANO =
2018-01-16 00:56 METAR KLEW 160556Z AUTO 36009KT 9SM -SN OVC028 M10/M13 A3052 RMK AO2 SLP354
                 P0000 60000 T11001128 11094 21100 58019 FZRANO =
2018-01-15 23:56 METAR KLEW 160456Z AUTO 01008KT 9SM -SN OVC028 M10/M12 A3054 RMK AO2 SLP358
                 P0000 T11001122 FZRANO =
2018-01-15 23:29 METAR KLEW 160429Z AUTO 36010KT 9SM -SN OVC028 M10/M12 A3055 RMK AO2 P0000
                 FZRANO =
2018-01-15 22:56 METAR KLEW 160356Z AUTO 36008KT 9SM -SN OVC030 M10/M12 A3057 RMK AO2 SLP370
                 P0000 T11001122 410941172 FZRANO =
2018-01-15 22:25 METAR KLEW 160325Z AUTO 36011KT 9SM -SN OVC030 M10/M12 A3057 RMK AO2 P0000
                 FZRANO =
2018-01-15 22:13 METAR KLEW 160313Z AUTO 36009KT 7SM -SN BKN027 OVC035 M10/M12 A3057 RMK AO2
                 P0000 FZRANO =
2018-01-15 21:56 METAR KLEW 160256Z AUTO 36011KT 4SM -SN BR FEW025 OVC035 M10/M12 A3058 RMK AO2
                 SLP374 P0000 60000 T11001117 57012 FZRANO =
2018-01-15 21:18 METAR KLEW 160218Z AUTO 01010KT 3SM -SN BR SCT025 OVC034 M09/M12 A3058 RMK AO2
                 P0000 FZRANO =
2018-01-15 21:16 METAR KLEW 160216Z AUTO 01011KT 2 1/2SM -SN BR BKN025 OVC032 M09/M12 A3058 RMK
                 AO2 P0000 FZRANO =
2018-01-15 20:56 METAR KLEW 160156Z AUTO 01009KT 3SM -SN BR BKN022 OVC032 M09/M12 A3059 RMK AO2
                 SLP378 P0000 T10941117 FZRANO =
2018-01-15 19:56 METAR KLEW 160056Z AUTO 01012KT 5SM -SN BR BKN022 OVC030 M09/M12 A3060 RMK AO2
                 SLP380 P0000 T10941117 FZRANO =
2018-01-15 19:45 METAR KLEW 160045Z AUTO 01013KT 5SM -SN BR FEW022 OVC028 M09/M12 A3060 RMK AO2
                 P0000 FZRANO =
2018-01-15 19:24 METAR KLEW 160024Z AUTO 01012KT 6SM -SN BR FEW022 OVC030 M09/M12 A3061 RMK AO2
                 P0000 FZRANO =
2018-01-15 18:56 METAR KLEW 152356Z AUTO 02013KT 8SM -SN OVC028 M09/M12 A3061 RMK AO2 SLP385
                 P0000 60000 T10941122 11094 21111 58016 FZRANO =
2018-01-15 17:56 METAR KLEW 152256Z AUTO 02013KT 9SM -SN OVC026 M09/M13 A3064 RMK AO2 SLP392
                 P0000 T10941128 FZRANO =
2018-01-15 16:56 METAR KLEW 152156Z AUTO 01013KT 9SM -SN OVC024 M09/M14 A3064 RMK AO2 SLP394
                 P0000 T10941144 FZRANO =
2018-01-15 15:56 METAR KLEW 152056Z AUTO 03011KT 10SM -SN OVC022 M09/M17 A3066 RMK AO2 SNB52
                 SLP400 P0000 60000 T10941167 55010 FZRANO =
2018-01-15 14:56 METAR KLEW 151956Z AUTO 36010KT 10SM OVC018 M10/M18 A3065 RMK AO2 SLP397
                 T11001183 FZRANO =
2018-01-15 14:29 METAR KLEW 151929Z AUTO 36010KT 10SM BKN020 BKN024 M10/M19 A3065 RMK AO2 FZRANO
                 =
2018-01-15 13:56 METAR KLEW 151856Z AUTO 02011KT 10SM CLR M10/M19 A3066 RMK AO2 SLP400 T11001194
                 FZRANO =
2018-01-15 12:56 METAR KLEW 151756Z AUTO 36010KT 10SM CLR M11/M20 A3069 RMK AO2 SLP410 T11111200
                 11111 21172 58043 FZRANO TSNO =

Support USWX by starting your Amazon purchase here.